createdAt,value
2023-02-12T00:01:11.055Z,9.57
2023-02-12T00:03:38.262Z,10.55
2023-02-12T00:06:05.721Z,10.80
2023-02-12T00:08:32.530Z,10.57
2023-02-12T00:10:59.348Z,12.10
2023-02-12T00:13:26.134Z,10.70
2023-02-12T00:15:53.084Z,11.77
2023-02-12T00:18:20.046Z,10.55
2023-02-12T00:20:46.796Z,10.55
2023-02-12T00:23:13.718Z,10.55
2023-02-12T00:25:44.273Z,10.73
2023-02-12T00:28:11.139Z,12.55
2023-02-12T00:30:38.050Z,11.30
2023-02-12T00:33:04.854Z,12.13
2023-02-12T00:35:31.655Z,13.40
2023-02-12T00:37:58.730Z,12.82
2023-02-12T00:40:25.592Z,13.27
2023-02-12T00:42:52.424Z,11.93
2023-02-12T00:45:19.221Z,12.80
2023-02-12T00:47:45.984Z,11.95
2023-02-12T00:50:15.486Z,13.00
2023-02-12T00:52:42.295Z,11.05
2023-02-12T00:55:09.377Z,12.80
2023-02-12T00:57:36.287Z,11.57
2023-02-12T01:00:03.877Z,12.20
2023-02-12T01:02:30.625Z,13.15
2023-02-12T01:04:58.496Z,11.95
2023-02-12T01:07:25.515Z,13.18
2023-02-12T01:09:52.356Z,12.50
2023-02-12T01:12:19.190Z,12.00
2023-02-12T01:14:46.796Z,13.38
2023-02-12T01:17:13.624Z,11.93
2023-02-12T01:19:42.664Z,12.93
2023-02-12T01:22:09.460Z,13.07
2023-02-12T01:24:36.259Z,14.70
2023-02-12T01:27:03.142Z,12.40
2023-02-12T01:29:29.989Z,15.00
2023-02-12T01:31:56.831Z,12.80
2023-02-12T01:34:23.861Z,13.55
2023-02-12T01:36:50.732Z,12.60
2023-02-12T01:39:17.514Z,13.55
2023-02-12T01:41:44.876Z,12.60
2023-02-12T01:44:13.576Z,11.32
2023-02-12T01:46:40.560Z,11.82
2023-02-12T01:49:34.991Z,11.05
2023-02-12T01:52:24.959Z,11.05
2023-02-12T01:54:51.783Z,10.35
2023-02-12T01:57:18.646Z,9.82
2023-02-12T01:59:45.882Z,9.80
2023-02-12T02:02:12.724Z,9.90
2023-02-12T02:04:48.360Z,10.02
2023-02-12T02:07:15.113Z,10.40
2023-02-12T02:09:41.955Z,10.48
2023-02-12T02:12:27.244Z,10.10
2023-02-12T02:14:59.121Z,10.00
2023-02-12T02:17:38.751Z,10.20
2023-02-12T02:20:39.491Z,10.18
2023-02-12T02:23:10.973Z,10.70
2023-02-12T02:26:11.855Z,9.63
2023-02-12T02:29:06.755Z,9.93
2023-02-12T02:31:43.195Z,8.68
2023-02-12T02:34:37.889Z,8.25
2023-02-12T02:37:23.935Z,8.20
2023-02-12T02:40:09.550Z,7.53
2023-02-12T02:42:50.520Z,7.28
2023-02-12T02:45:52.297Z,7.35
2023-02-12T02:48:27.267Z,8.00
2023-02-12T02:50:57.525Z,7.18
2023-02-12T02:53:30.573Z,6.80
2023-02-12T02:55:58.778Z,6.75
2023-02-12T02:58:35.986Z,8.27
2023-02-12T03:01:18.034Z,7.80
2023-02-12T03:03:51.215Z,8.60
2023-02-12T03:06:40.903Z,7.32
2023-02-12T03:09:21.764Z,7.05
2023-02-12T03:11:50.847Z,6.65
2023-02-12T03:14:22.514Z,6.97
2023-02-12T03:17:20.864Z,7.85
2023-02-12T03:19:51.359Z,7.55
2023-02-12T03:22:23.258Z,8.45
2023-02-12T03:25:05.590Z,7.80
2023-02-12T03:27:33.002Z,7.85
2023-02-12T03:30:00.245Z,9.02
2023-02-12T03:33:13.552Z,8.70
2023-02-12T03:35:57.038Z,8.27
2023-02-12T03:38:47.753Z,7.97
2023-02-12T03:41:15.578Z,8.82
2023-02-12T03:43:50.326Z,8.00
2023-02-12T03:46:32.055Z,8.30
2023-02-12T03:49:15.710Z,8.45
2023-02-12T03:51:43.454Z,8.27
2023-02-12T03:54:10.974Z,7.80
2023-02-12T03:56:43.302Z,8.18
2023-02-12T03:59:10.141Z,8.88
2023-02-12T04:01:37.126Z,8.40
2023-02-12T04:04:05.562Z,8.32
2023-02-12T04:06:32.339Z,8.23
2023-02-12T04:09:01.769Z,7.78
2023-02-12T04:11:49.051Z,7.93
2023-02-12T04:14:27.527Z,7.72
2023-02-12T04:17:10.287Z,8.85
2023-02-12T04:19:56.265Z,8.13
2023-02-12T04:22:38.158Z,8.30
2023-02-12T04:25:23.790Z,8.70
2023-02-12T04:28:07.322Z,8.77
2023-02-12T04:30:37.461Z,8.40
2023-02-12T04:33:05.257Z,7.70
2023-02-12T04:35:43.530Z,8.48
2023-02-12T04:38:13.572Z,8.07
2023-02-12T04:40:40.547Z,8.10
2023-02-12T04:43:07.406Z,8.68
2023-02-12T04:45:34.939Z,8.40
2023-02-12T04:48:02.268Z,8.50
2023-02-12T04:50:38.956Z,8.63
2023-02-12T04:53:05.860Z,7.72
2023-02-12T04:55:32.621Z,8.75
2023-02-12T04:57:59.372Z,9.30
2023-02-12T05:00:26.259Z,8.82
2023-02-12T05:02:52.982Z,9.32
2023-02-12T05:05:19.814Z,8.73
2023-02-12T05:07:46.689Z,8.65
2023-02-12T05:10:13.624Z,8.38
2023-02-12T05:12:40.583Z,8.93
2023-02-12T05:15:07.699Z,8.45
2023-02-12T05:17:34.537Z,9.20
2023-02-12T05:20:01.342Z,9.50
2023-02-12T05:22:28.204Z,9.07
2023-02-12T05:24:54.965Z,8.77
2023-02-12T05:27:21.780Z,9.30
2023-02-12T05:29:48.562Z,9.88
2023-02-12T05:32:15.391Z,9.43
2023-02-12T05:34:42.253Z,8.73
2023-02-12T05:37:09.026Z,9.48
2023-02-12T05:39:35.745Z,8.93
2023-02-12T05:42:02.549Z,8.57
2023-02-12T05:44:29.432Z,8.63
2023-02-12T05:46:56.224Z,8.63
2023-02-12T05:49:22.986Z,7.88
2023-02-12T05:51:50.016Z,8.77
2023-02-12T05:54:16.757Z,7.97
2023-02-12T05:56:45.315Z,8.93
2023-02-12T05:59:22.280Z,8.10
2023-02-12T06:01:50.243Z,8.32
2023-02-12T06:04:23.677Z,8.45
2023-02-12T06:09:17.692Z,8.30
2023-02-12T06:11:44.660Z,7.65
2023-02-12T06:14:13.751Z,8.88
2023-02-12T06:16:40.651Z,7.38
2023-02-12T06:19:07.669Z,7.68
2023-02-12T06:21:34.585Z,7.25
2023-02-12T06:24:01.419Z,7.18
2023-02-12T06:26:28.586Z,7.60
2023-02-12T06:28:55.375Z,7.00
2023-02-12T06:31:30.559Z,7.28
2023-02-12T06:33:59.117Z,6.97
2023-02-12T06:36:25.865Z,8.52
2023-02-12T06:38:52.747Z,7.25
2023-02-12T06:41:20.177Z,8.27
2023-02-12T06:43:47.010Z,7.22
2023-02-12T06:46:13.897Z,6.55
2023-02-12T06:48:40.984Z,7.15
2023-02-12T06:51:09.702Z,6.93
2023-02-12T06:53:36.562Z,6.45
2023-02-12T06:56:04.785Z,6.78
2023-02-12T06:58:31.591Z,6.82
2023-02-12T07:01:07.695Z,5.80
2023-02-12T07:03:34.638Z,6.95
2023-02-12T07:06:03.415Z,6.82
2023-02-12T07:08:30.156Z,6.78
2023-02-12T07:10:56.911Z,6.30
2023-02-12T07:13:23.669Z,6.22
2023-02-12T07:15:50.531Z,6.05
2023-02-12T07:18:17.388Z,6.70
2023-02-12T07:20:44.128Z,5.70
2023-02-12T07:23:13.919Z,5.45
2023-02-12T07:25:40.738Z,5.82
2023-02-12T07:28:07.486Z,6.07
2023-02-12T07:30:34.401Z,5.68
2023-02-12T07:33:01.228Z,5.03
2023-02-12T07:35:27.979Z,4.93
2023-02-12T07:37:54.817Z,5.30
2023-02-12T07:40:21.645Z,4.68
2023-02-12T07:42:53.528Z,3.67
2023-02-12T07:45:20.293Z,3.97
2023-02-12T07:47:47.034Z,3.63
2023-02-12T07:50:13.969Z,2.95
2023-02-12T07:52:40.733Z,3.22
2023-02-12T07:55:08.022Z,3.80
2023-02-12T07:57:35.438Z,3.90
2023-02-12T08:00:02.475Z,4.07
2023-02-12T08:02:39.044Z,4.05
2023-02-12T08:05:06.353Z,3.78
2023-02-12T08:07:33.118Z,2.92
2023-02-12T08:09:59.914Z,3.40
2023-02-12T08:12:26.739Z,3.05
2023-02-12T08:14:54.386Z,2.67
2023-02-12T08:17:21.191Z,2.70
2023-02-12T08:19:47.943Z,2.88
2023-02-12T08:22:14.745Z,2.38
2023-02-12T08:24:42.605Z,2.45
2023-02-12T08:27:09.393Z,3.22
2023-02-12T08:29:36.420Z,3.50
2023-02-12T08:32:03.621Z,3.28
2023-02-12T08:34:32.291Z,3.20
2023-02-12T08:36:59.145Z,4.60
2023-02-12T08:39:27.589Z,3.13
2023-02-12T08:41:55.585Z,2.83
2023-02-12T08:44:22.440Z,4.80
2023-02-12T08:46:50.591Z,3.30
2023-02-12T08:49:19.260Z,3.88
2023-02-12T08:51:48.757Z,4.28
2023-02-12T08:54:23.951Z,4.32
2023-02-12T08:56:51.199Z,4.35
2023-02-12T08:59:18.418Z,3.00
2023-02-12T09:01:45.236Z,2.90
2023-02-12T09:04:21.544Z,3.10
2023-02-12T09:06:48.485Z,2.67
2023-02-12T09:09:15.531Z,3.15
2023-02-12T09:11:42.350Z,2.78
2023-02-12T09:14:11.659Z,3.58
2023-02-12T09:16:40.246Z,3.00
2023-02-12T09:19:07.743Z,2.97
2023-02-12T09:21:34.693Z,3.05
2023-02-12T09:24:02.628Z,3.58
2023-02-12T09:26:29.567Z,3.50
2023-02-12T09:28:56.387Z,3.00
2023-02-12T09:31:26.574Z,2.90
2023-02-12T09:33:55.334Z,3.13
2023-02-12T09:36:22.383Z,3.25
2023-02-12T09:38:49.633Z,2.90
2023-02-12T09:41:43.194Z,4.05
2023-02-12T09:44:31.716Z,2.72
2023-02-12T09:47:15.818Z,3.28
2023-02-12T09:50:02.023Z,3.15
2023-02-12T09:52:29.203Z,3.63
2023-02-12T09:54:56.208Z,3.33
2023-02-12T09:57:31.394Z,2.22
2023-02-12T10:00:16.827Z,1.88
2023-02-12T10:02:43.732Z,1.60
2023-02-12T10:05:24.819Z,2.20
2023-02-12T10:07:57.600Z,1.80
2023-02-12T10:10:48.479Z,1.80
2023-02-12T10:13:42.814Z,1.70
2023-02-12T10:16:30.947Z,2.83
2023-02-12T10:19:00.790Z,2.25
2023-02-12T10:21:33.968Z,2.28
2023-02-12T10:24:35.114Z,1.45
2023-02-12T10:27:12.049Z,1.30
2023-02-12T10:29:39.529Z,0.80
2023-02-12T10:32:11.594Z,0.95
2023-02-12T10:34:38.389Z,0.98
2023-02-12T10:37:28.499Z,1.10
2023-02-12T10:39:58.261Z,1.35
2023-02-12T10:42:34.773Z,1.35
2023-02-12T10:45:01.598Z,1.10
2023-02-12T10:47:28.392Z,0.50
2023-02-12T10:49:59.748Z,0.70
2023-02-12T10:52:29.492Z,0.63
2023-02-12T10:54:56.459Z,0.50
2023-02-12T10:57:25.053Z,0.52
2023-02-12T10:59:54.016Z,0.85
2023-02-12T11:02:29.509Z,0.50
2023-02-12T11:04:56.886Z,0.80
2023-02-12T11:07:24.016Z,0.40
2023-02-12T11:09:51.891Z,0.25
2023-02-12T11:12:47.943Z,0.30
2023-02-12T11:15:16.686Z,0.30
2023-02-12T11:17:45.584Z,0.45
2023-02-12T11:20:18.568Z,0.43
2023-02-12T11:22:55.665Z,0.77
2023-02-12T11:25:23.114Z,0.30
2023-02-12T11:28:05.292Z,0.50
2023-02-12T11:30:32.467Z,0.30
2023-02-12T11:33:23.492Z,0.30
2023-02-12T11:35:58.300Z,0.30
2023-02-12T11:38:28.050Z,0.55
2023-02-12T11:40:58.475Z,0.50
2023-02-12T11:43:25.505Z,0.82
2023-02-12T11:45:53.041Z,0.30
2023-02-12T11:48:34.605Z,0.60
2023-02-12T11:51:03.830Z,0.60
2023-02-12T11:53:32.781Z,0.40
2023-02-12T11:56:10.638Z,0.50
2023-02-12T11:58:37.548Z,0.50
2023-02-12T12:01:37.110Z,0.45
2023-02-12T12:04:06.679Z,0.57
2023-02-12T12:06:38.745Z,0.50
2023-02-12T12:09:13.032Z,0.32
2023-02-12T12:12:10.325Z,0.50
2023-02-12T12:15:02.767Z,0.60
2023-02-12T12:18:00.342Z,0.70
2023-02-12T12:20:29.702Z,1.02
2023-02-12T12:23:08.553Z,0.90
2023-02-12T12:25:44.173Z,0.80
2023-02-12T12:28:28.591Z,0.60
2023-02-12T12:31:10.761Z,0.60
2023-02-12T12:33:51.722Z,0.70
2023-02-12T12:36:18.580Z,1.02
2023-02-12T12:39:18.780Z,0.60
2023-02-12T12:42:14.600Z,0.70
2023-02-12T12:45:12.349Z,0.40
2023-02-12T12:48:03.121Z,0.52
2023-02-12T12:51:01.707Z,0.40
2023-02-12T12:53:53.440Z,0.50
2023-02-12T12:56:26.032Z,0.40
2023-02-12T12:59:16.416Z,0.30
2023-02-12T13:02:22.055Z,0.30
2023-02-12T13:05:06.689Z,0.60
2023-02-12T13:07:54.626Z,0.40
2023-02-12T13:10:45.446Z,0.52
2023-02-12T13:13:33.592Z,0.63
2023-02-12T13:16:16.072Z,0.82
2023-02-12T13:18:52.039Z,0.40
2023-02-12T13:21:54.248Z,0.60
2023-02-12T13:24:24.569Z,0.55
2023-02-12T13:27:06.023Z,0.60
2023-02-12T13:29:39.166Z,0.90
2023-02-12T13:32:13.370Z,0.60
2023-02-12T13:34:40.235Z,0.82
2023-02-12T13:37:07.209Z,0.45
2023-02-12T13:39:39.485Z,0.70
2023-02-12T13:42:09.994Z,0.75
2023-02-12T13:44:40.256Z,1.10
2023-02-12T13:47:25.436Z,0.90
2023-02-12T13:49:54.303Z,0.98
2023-02-12T13:52:33.277Z,0.63
2023-02-12T13:55:21.423Z,0.90
2023-02-12T13:58:40.771Z,2.35
2023-02-12T14:01:16.403Z,0.80
2023-02-12T14:03:43.280Z,0.60
2023-02-12T14:06:15.475Z,1.15
2023-02-12T14:09:07.789Z,1.20
2023-02-12T14:11:34.512Z,1.10
2023-02-12T14:14:03.103Z,1.38
2023-02-12T14:16:29.891Z,1.27
2023-02-12T14:19:34.244Z,1.20
2023-02-12T14:22:01.402Z,1.08
2023-02-12T14:24:37.434Z,0.82
2023-02-12T14:27:26.924Z,0.80
2023-02-12T14:30:04.060Z,0.73
2023-02-12T14:32:53.731Z,0.60
2023-02-12T14:35:26.296Z,0.73
2023-02-12T14:37:54.317Z,0.90
2023-02-12T14:40:31.807Z,0.80
2023-02-12T14:42:58.593Z,0.80
2023-02-12T14:45:35.877Z,0.70
2023-02-12T14:48:04.122Z,0.90
2023-02-12T14:50:45.743Z,1.20
2023-02-12T14:53:26.903Z,1.75
2023-02-12T14:55:53.815Z,1.38
2023-02-12T14:58:22.550Z,1.20
2023-02-12T15:00:50.118Z,1.42
2023-02-12T15:03:39.022Z,1.60
2023-02-12T15:06:13.473Z,1.52
2023-02-12T15:09:02.148Z,1.55
2023-02-12T15:12:03.761Z,1.35
2023-02-12T15:14:31.914Z,2.30
2023-02-12T15:17:09.883Z,1.60
2023-02-12T15:19:57.344Z,1.55
2023-02-12T15:22:29.632Z,1.88
2023-02-12T15:25:25.819Z,1.40
2023-02-12T15:27:55.884Z,1.80
2023-02-12T15:30:26.642Z,2.00
2023-02-12T15:32:59.491Z,1.88
2023-02-12T15:35:28.126Z,2.27
2023-02-12T15:37:55.540Z,2.22
2023-02-12T15:40:22.569Z,1.85
2023-02-12T15:42:53.555Z,1.80
2023-02-12T15:45:22.868Z,1.83
2023-02-12T15:48:02.129Z,2.42
2023-02-12T15:50:29.685Z,1.58
2023-02-12T15:52:56.850Z,1.70
2023-02-12T15:55:25.758Z,2.22
2023-02-12T15:57:54.146Z,1.65
2023-02-12T16:00:43.901Z,1.45
2023-02-12T16:03:25.873Z,2.20
2023-02-12T16:05:53.128Z,2.63
2023-02-12T16:08:21.606Z,1.50
2023-02-12T16:10:49.420Z,1.30
2023-02-12T16:13:32.911Z,1.33
2023-02-12T16:16:11.959Z,1.67
2023-02-12T16:18:39.505Z,1.80
2023-02-12T16:21:06.946Z,1.52
2023-02-12T16:23:34.714Z,1.73
2023-02-12T16:26:01.542Z,2.60
2023-02-12T16:28:29.062Z,2.28
2023-02-12T16:31:09.209Z,1.50
2023-02-12T16:33:45.480Z,1.75
2023-02-12T16:36:28.387Z,2.05
2023-02-12T16:39:02.610Z,2.00
2023-02-12T16:41:33.508Z,1.67
2023-02-12T16:44:00.301Z,1.85
2023-02-12T16:46:49.627Z,1.60
2023-02-12T16:49:17.675Z,1.58
2023-02-12T16:51:44.730Z,1.90
2023-02-12T16:54:31.290Z,1.90
2023-02-12T16:56:59.694Z,2.10
2023-02-12T16:59:26.715Z,1.70
2023-02-12T17:01:57.402Z,2.03
2023-02-12T17:04:24.317Z,1.65
2023-02-12T17:06:51.124Z,1.67
2023-02-12T17:09:17.880Z,1.98
2023-02-12T17:11:46.125Z,2.20
2023-02-12T17:14:18.986Z,2.05
2023-02-12T17:16:45.960Z,2.58
2023-02-12T17:19:12.802Z,2.33
2023-02-12T17:21:41.980Z,3.10
2023-02-12T17:24:26.295Z,3.05
2023-02-12T17:26:53.578Z,3.60
2023-02-12T17:29:21.746Z,4.15
2023-02-12T17:31:49.107Z,4.70
2023-02-12T17:34:16.524Z,4.05
2023-02-12T17:36:43.271Z,5.05
2023-02-12T17:39:11.822Z,5.05
2023-02-12T17:41:38.699Z,5.30
2023-02-12T17:44:05.604Z,5.28
2023-02-12T17:46:32.590Z,3.55
2023-02-12T17:48:59.448Z,3.72
2023-02-12T17:51:26.264Z,3.70
2023-02-12T17:53:53.130Z,3.95
2023-02-12T17:56:21.295Z,3.10
2023-02-12T17:58:48.437Z,2.95
2023-02-12T18:01:19.613Z,3.40
2023-02-12T18:03:46.512Z,3.13
2023-02-12T18:06:16.306Z,3.70
2023-02-12T18:08:44.298Z,3.25
2023-02-12T18:11:11.503Z,3.60
2023-02-12T18:13:38.485Z,2.92
2023-02-12T18:16:09.095Z,2.88
2023-02-12T18:18:36.394Z,2.80
2023-02-12T18:21:07.719Z,3.03
2023-02-12T18:23:34.602Z,2.42
2023-02-12T18:26:04.420Z,2.15
2023-02-12T18:28:31.238Z,1.92
2023-02-12T18:30:58.978Z,2.17
2023-02-12T18:33:26.066Z,1.67
2023-02-12T18:36:06.957Z,1.67
2023-02-12T18:38:34.842Z,1.67
2023-02-12T18:41:06.446Z,2.38
2023-02-12T18:43:35.901Z,2.78
2023-02-12T18:46:10.374Z,1.77
2023-02-12T18:48:37.250Z,2.78
2023-02-12T18:51:04.927Z,2.03
2023-02-12T18:53:31.732Z,2.38
2023-02-12T18:55:58.646Z,2.83
2023-02-12T18:58:25.505Z,4.93
2023-02-12T19:00:52.358Z,4.47
2023-02-12T19:03:19.113Z,4.10
2023-02-12T19:05:45.946Z,5.10
2023-02-12T19:08:13.226Z,7.15
2023-02-12T19:10:40.559Z,4.15
2023-02-12T19:13:07.714Z,4.05
2023-02-12T19:15:34.702Z,4.07
2023-02-12T19:18:01.798Z,3.45
2023-02-12T19:20:28.580Z,4.07
2023-02-12T19:22:56.175Z,3.60
2023-02-12T19:25:22.935Z,3.17
2023-02-12T19:27:49.734Z,3.53
2023-02-12T19:30:16.636Z,3.55
2023-02-12T19:32:43.428Z,4.28
2023-02-12T19:35:10.239Z,4.18
2023-02-12T19:37:37.230Z,4.95
2023-02-12T19:40:04.109Z,5.53
2023-02-12T19:42:30.972Z,5.07
2023-02-12T19:44:57.847Z,5.80
2023-02-12T19:47:24.678Z,4.18
2023-02-12T19:49:51.454Z,4.45
2023-02-12T19:52:18.278Z,4.82
2023-02-12T19:54:45.385Z,4.78
2023-02-12T19:57:13.557Z,5.20
2023-02-12T19:59:41.137Z,5.32
2023-02-12T20:02:09.343Z,6.35
2023-02-12T20:04:36.889Z,5.15
2023-02-12T20:07:03.956Z,5.32
2023-02-12T20:09:30.828Z,5.45
2023-02-12T20:11:58.283Z,6.85
2023-02-12T20:14:25.291Z,5.43
2023-02-12T20:16:54.502Z,5.43
2023-02-12T20:19:28.867Z,7.78
2023-02-12T20:21:57.413Z,6.78
2023-02-12T20:24:28.551Z,6.70
2023-02-12T20:26:55.601Z,7.10
2023-02-12T20:29:22.946Z,6.13
2023-02-12T20:31:50.015Z,6.60
2023-02-12T20:34:18.019Z,5.90
2023-02-12T20:36:48.146Z,9.68
2023-02-12T20:39:17.002Z,7.05
2023-02-12T20:41:44.385Z,6.65
2023-02-12T20:44:13.908Z,6.20
2023-02-12T20:46:42.206Z,7.07
2023-02-12T20:49:10.128Z,6.32
2023-02-12T20:51:36.904Z,6.80
2023-02-12T20:54:03.862Z,5.97
2023-02-12T20:56:32.406Z,7.05
2023-02-12T20:58:59.828Z,6.65
2023-02-12T21:01:32.894Z,6.53
2023-02-12T21:04:02.758Z,6.00
2023-02-12T21:06:29.620Z,6.78
2023-02-12T21:08:56.777Z,6.90
2023-02-12T21:11:24.551Z,6.75
2023-02-12T21:14:02.184Z,7.47
2023-02-12T21:16:30.890Z,7.03
2023-02-12T21:18:57.890Z,6.82
2023-02-12T21:21:35.891Z,8.65
2023-02-12T21:24:06.285Z,7.47
2023-02-12T21:26:33.465Z,7.88
2023-02-12T21:29:01.462Z,7.03
2023-02-12T21:31:32.855Z,7.85
2023-02-12T21:34:00.452Z,8.95
2023-02-12T21:36:38.077Z,7.00
2023-02-12T21:39:06.553Z,6.97
2023-02-12T21:41:35.655Z,7.80
2023-02-12T21:44:04.677Z,8.63
2023-02-12T21:46:31.495Z,8.43
2023-02-12T21:48:58.411Z,7.78
2023-02-12T21:51:27.462Z,7.68
2023-02-12T21:53:55.876Z,8.70
2023-02-12T21:56:22.994Z,9.23
2023-02-12T21:58:51.317Z,8.18
2023-02-12T22:01:20.328Z,8.57
2023-02-12T22:03:47.183Z,9.02
2023-02-12T22:06:14.644Z,9.18
2023-02-12T22:08:41.363Z,8.68
2023-02-12T22:11:10.829Z,9.07
2023-02-12T22:13:37.815Z,9.00
2023-02-12T22:16:12.180Z,10.25
2023-02-12T22:18:39.366Z,8.60
2023-02-12T22:21:06.946Z,9.48
2023-02-12T22:23:34.285Z,9.15
2023-02-12T22:26:12.257Z,10.98
2023-02-12T22:29:09.240Z,11.82
2023-02-12T22:31:37.275Z,10.65
2023-02-12T22:34:06.397Z,10.80
2023-02-12T22:36:34.990Z,12.82
2023-02-12T22:39:02.056Z,11.88
2023-02-12T22:41:29.111Z,12.93
2023-02-12T22:43:58.346Z,13.30
2023-02-12T22:46:25.205Z,12.80
2023-02-12T22:48:51.929Z,14.15
2023-02-12T22:51:19.529Z,15.70
2023-02-12T22:53:46.470Z,15.43
2023-02-12T22:56:13.369Z,13.57
2023-02-12T22:58:40.313Z,14.50
2023-02-12T23:01:15.521Z,14.48
2023-02-12T23:03:42.488Z,13.68
2023-02-12T23:06:11.745Z,13.35
2023-02-12T23:08:38.585Z,14.05
2023-02-12T23:11:07.846Z,14.13
2023-02-12T23:13:35.783Z,13.68
2023-02-12T23:16:02.776Z,13.25
2023-02-12T23:18:29.584Z,12.43
2023-02-12T23:20:56.665Z,14.25
2023-02-12T23:23:23.743Z,13.05
2023-02-12T23:25:50.673Z,13.88
2023-02-12T23:28:17.554Z,14.32
2023-02-12T23:30:44.531Z,16.10
2023-02-12T23:33:11.479Z,13.88
2023-02-12T23:35:38.275Z,14.18
2023-02-12T23:38:05.252Z,14.27
2023-02-12T23:40:32.945Z,13.70
2023-02-12T23:43:00.114Z,14.40
2023-02-12T23:45:27.577Z,14.25
2023-02-12T23:47:54.509Z,14.32
2023-02-12T23:50:21.325Z,13.68
2023-02-12T23:52:48.110Z,14.35
2023-02-12T23:55:15.057Z,13.88
2023-02-12T23:57:41.937Z,13.82
